createdAt,value
2022-10-02T00:02:36.226Z,76.43
2022-10-02T00:05:54.305Z,76.54
2022-10-02T00:09:03.655Z,76.10
2022-10-02T00:12:08.873Z,75.99
2022-10-02T00:15:18.991Z,77.00
2022-10-02T00:18:26.043Z,76.48
2022-10-02T00:21:49.903Z,77.33
2022-10-02T00:25:16.573Z,76.49
2022-10-02T00:28:40.784Z,76.78
2022-10-02T00:32:04.422Z,76.63
2022-10-02T00:35:37.482Z,77.09
2022-10-02T00:38:55.494Z,76.40
2022-10-02T00:42:32.666Z,77.02
2022-10-02T00:45:46.566Z,77.75
2022-10-02T00:49:05.597Z,77.15
2022-10-02T00:52:32.957Z,76.49
2022-10-02T00:55:42.726Z,77.21
2022-10-02T00:58:50.539Z,77.74
2022-10-02T01:01:59.902Z,77.09
2022-10-02T01:05:05.537Z,77.88
2022-10-02T01:08:08.121Z,77.51
2022-10-02T01:11:10.341Z,76.88
2022-10-02T01:14:12.769Z,76.88
2022-10-02T01:17:34.606Z,77.74
2022-10-02T01:20:41.865Z,77.46
2022-10-02T01:24:03.935Z,76.89
2022-10-02T01:27:07.259Z,77.95
2022-10-02T01:30:20.560Z,77.46
2022-10-02T01:33:23.276Z,77.80
2022-10-02T01:36:25.960Z,76.82
2022-10-02T01:39:28.576Z,77.92
2022-10-02T01:42:30.761Z,77.98
2022-10-02T01:46:02.037Z,77.55
2022-10-02T01:49:16.407Z,76.72
2022-10-02T01:52:46.070Z,77.50
2022-10-02T01:56:14.888Z,77.80
2022-10-02T01:59:30.022Z,77.47
2022-10-02T02:02:56.520Z,78.45
2022-10-02T02:06:09.706Z,77.50
2022-10-02T02:09:21.847Z,77.77
2022-10-02T02:12:32.979Z,78.10
2022-10-02T02:15:43.980Z,77.03
2022-10-02T02:19:16.562Z,77.36
2022-10-02T02:22:26.821Z,78.17
2022-10-02T02:25:34.284Z,77.60
2022-10-02T02:28:40.718Z,77.04
2022-10-02T02:31:53.592Z,76.71
2022-10-02T02:35:04.547Z,77.67
2022-10-02T02:38:12.791Z,77.92
2022-10-02T02:41:21.085Z,77.54
2022-10-02T02:44:34.491Z,77.63
2022-10-02T02:47:48.502Z,76.80
2022-10-02T02:51:01.719Z,77.19
2022-10-02T02:54:10.727Z,78.14
2022-10-02T02:57:15.971Z,78.21
2022-10-02T03:00:20.206Z,77.86
2022-10-02T03:03:22.322Z,77.81
2022-10-02T03:06:38.649Z,78.41
2022-10-02T03:09:41.221Z,78.41
2022-10-02T03:12:52.206Z,77.34
2022-10-02T03:16:12.979Z,77.04
2022-10-02T03:19:45.750Z,77.66
2022-10-02T03:22:50.815Z,77.35
2022-10-02T03:26:00.616Z,77.99
2022-10-02T03:29:07.208Z,77.33
2022-10-02T03:32:14.539Z,77.43
2022-10-02T03:35:17.768Z,77.33
2022-10-02T03:38:22.497Z,76.81
2022-10-02T03:41:24.621Z,76.84
2022-10-02T03:44:27.034Z,77.34
2022-10-02T03:47:29.147Z,76.95
2022-10-02T03:50:35.536Z,76.83
2022-10-02T03:53:40.910Z,77.24
2022-10-02T03:57:03.666Z,77.91
2022-10-02T04:00:27.136Z,77.45
2022-10-02T04:03:36.952Z,77.70
2022-10-02T04:06:57.105Z,78.50
2022-10-02T04:10:37.000Z,77.97
2022-10-02T04:13:46.411Z,77.92
2022-10-02T04:17:02.467Z,77.99
2022-10-02T04:20:15.148Z,78.20
2022-10-02T04:23:23.943Z,79.37
2022-10-02T04:26:35.094Z,79.37
2022-10-02T04:29:43.675Z,79.48
2022-10-02T04:32:46.048Z,78.97
2022-10-02T04:35:51.568Z,78.92
2022-10-02T04:39:31.592Z,77.92
2022-10-02T04:42:39.954Z,77.22
2022-10-02T04:45:54.054Z,80.25
2022-10-02T04:49:05.633Z,88.65
2022-10-02T04:52:24.506Z,97.13
2022-10-02T04:55:51.497Z,100.00
2022-10-02T04:59:02.943Z,100.00
2022-10-02T05:02:09.658Z,94.56
2022-10-02T05:05:35.562Z,91.14
2022-10-02T05:08:59.446Z,87.96
2022-10-02T05:12:10.493Z,86.02
2022-10-02T05:15:51.418Z,84.53
2022-10-02T05:19:04.449Z,84.47
2022-10-02T05:22:25.010Z,83.93
2022-10-02T05:25:47.036Z,84.74
2022-10-02T05:29:07.885Z,84.72
2022-10-02T05:32:48.912Z,85.46
2022-10-02T05:36:17.950Z,84.87
2022-10-02T05:39:40.701Z,83.76
2022-10-02T05:43:10.186Z,83.27
2022-10-02T05:46:36.443Z,82.53
2022-10-02T05:49:44.971Z,81.97
2022-10-02T05:52:54.326Z,81.59
2022-10-02T05:56:04.874Z,76.97
2022-10-02T05:59:26.598Z,71.68
2022-10-02T06:02:40.431Z,69.63
2022-10-02T06:05:55.604Z,69.43
2022-10-02T06:09:19.808Z,69.19
2022-10-02T06:12:30.651Z,69.54
2022-10-02T06:15:43.904Z,69.74
2022-10-02T06:18:51.023Z,67.06
2022-10-02T06:22:13.874Z,65.01
2022-10-02T06:25:47.555Z,65.80
2022-10-02T06:28:58.391Z,64.87
2022-10-02T06:32:16.778Z,64.83
2022-10-02T06:35:35.613Z,68.55
2022-10-02T06:38:59.419Z,67.42
2022-10-02T06:42:43.157Z,69.55
2022-10-02T06:46:01.205Z,71.36
2022-10-02T06:49:12.275Z,71.82
2022-10-02T06:52:46.104Z,71.49
2022-10-02T06:55:52.433Z,68.82
2022-10-02T06:59:25.367Z,64.39
2022-10-02T07:02:59.612Z,63.96
2022-10-02T07:06:26.224Z,63.20
2022-10-02T07:09:28.546Z,63.38
2022-10-02T07:13:04.548Z,62.29
2022-10-02T07:16:39.255Z,61.53
2022-10-02T07:20:22.028Z,62.38
2022-10-02T07:24:00.113Z,62.33
2022-10-02T07:27:26.392Z,61.81
2022-10-02T07:30:51.090Z,60.57
2022-10-02T07:34:06.597Z,62.01
2022-10-02T07:37:46.084Z,62.09
2022-10-02T07:41:04.902Z,62.25
2022-10-02T07:44:21.656Z,64.00
2022-10-02T07:47:38.872Z,64.52
2022-10-02T07:51:32.342Z,65.46
2022-10-02T07:54:40.758Z,65.77
2022-10-02T07:57:46.076Z,65.83
2022-10-02T08:00:53.017Z,66.29
2022-10-02T08:04:05.255Z,67.44
2022-10-02T08:07:07.378Z,67.16
2022-10-02T08:10:12.946Z,65.65
2022-10-02T08:13:31.557Z,66.81
2022-10-02T08:16:52.141Z,66.90
2022-10-02T08:20:00.047Z,66.29
2022-10-02T08:23:02.019Z,64.90
2022-10-02T08:26:11.934Z,66.47
2022-10-02T08:29:32.634Z,65.21
2022-10-02T08:32:36.933Z,65.22
2022-10-02T08:36:04.786Z,64.38
2022-10-02T08:39:12.810Z,64.69
2022-10-02T08:42:20.719Z,64.13
2022-10-02T08:45:42.010Z,64.38
2022-10-02T08:49:29.060Z,65.91
2022-10-02T08:52:59.202Z,65.96
2022-10-02T08:56:39.293Z,65.37
2022-10-02T09:00:01.162Z,67.03
2022-10-02T09:04:09.305Z,64.62
2022-10-02T09:07:48.769Z,66.20
2022-10-02T09:11:09.217Z,66.08
2022-10-02T09:14:39.311Z,66.67
2022-10-02T09:18:02.975Z,65.14
2022-10-02T09:21:27.827Z,66.27
2022-10-02T09:25:07.809Z,65.60
2022-10-02T09:28:41.958Z,66.50
2022-10-02T09:32:05.384Z,65.96
2022-10-02T09:35:27.471Z,66.39
2022-10-02T09:39:00.288Z,64.67
2022-10-02T09:42:20.444Z,64.08
2022-10-02T09:45:49.269Z,64.99
2022-10-02T09:48:54.368Z,65.82
2022-10-02T09:52:28.309Z,64.44
2022-10-02T09:56:06.980Z,64.84
2022-10-02T09:59:47.832Z,64.83
2022-10-02T10:02:53.764Z,65.74
2022-10-02T10:06:43.773Z,65.07
2022-10-02T10:10:07.537Z,63.88
2022-10-02T10:13:39.969Z,63.50
2022-10-02T10:17:20.811Z,63.24
2022-10-02T10:20:44.378Z,63.53
2022-10-02T10:24:40.769Z,64.52
2022-10-02T10:28:06.010Z,63.86
2022-10-02T10:31:35.896Z,64.59
2022-10-02T10:34:50.282Z,62.97
2022-10-02T10:38:35.037Z,64.77
2022-10-02T10:42:25.109Z,62.82
2022-10-02T10:45:59.417Z,64.77
2022-10-02T10:49:35.413Z,64.37
2022-10-02T10:53:10.501Z,63.52
2022-10-02T10:56:37.027Z,66.04
2022-10-02T10:59:46.564Z,65.99
2022-10-02T11:03:19.640Z,65.97
2022-10-02T11:06:45.247Z,64.84
2022-10-02T11:09:55.854Z,64.96
2022-10-02T11:13:03.456Z,64.34
2022-10-02T11:16:27.603Z,62.85
2022-10-02T11:19:49.578Z,65.64
2022-10-02T11:23:10.646Z,65.71
2022-10-02T11:26:43.680Z,65.94
2022-10-02T11:29:52.154Z,65.85
2022-10-02T11:33:11.819Z,64.97
2022-10-02T11:36:20.455Z,64.38
2022-10-02T11:39:47.815Z,63.87
2022-10-02T11:43:25.010Z,65.68
2022-10-02T11:46:52.814Z,65.79
2022-10-02T11:50:29.704Z,66.29
2022-10-02T11:53:55.366Z,65.52
2022-10-02T11:57:10.581Z,66.20
2022-10-02T12:00:42.943Z,65.96
2022-10-02T12:04:22.792Z,66.13
2022-10-02T12:07:53.451Z,64.75
2022-10-02T12:11:34.997Z,63.65
2022-10-02T12:14:56.364Z,61.36
2022-10-02T12:18:21.502Z,61.60
2022-10-02T12:22:01.523Z,60.80
2022-10-02T12:25:46.548Z,59.83
2022-10-02T12:29:06.668Z,60.30
2022-10-02T12:32:14.845Z,60.54
2022-10-02T12:35:27.815Z,60.84
2022-10-02T12:39:08.039Z,61.06
2022-10-02T12:42:17.182Z,59.85
2022-10-02T12:45:25.945Z,60.79
2022-10-02T12:49:03.538Z,60.98
2022-10-02T12:52:10.291Z,61.29
2022-10-02T12:55:59.369Z,61.59
2022-10-02T12:59:17.148Z,61.98
2022-10-02T13:03:01.366Z,61.32
2022-10-02T13:06:12.959Z,61.32
2022-10-02T13:09:36.080Z,63.14
2022-10-02T13:12:56.365Z,62.92
2022-10-02T13:16:25.155Z,62.79
2022-10-02T13:23:32.156Z,63.05
2022-10-02T13:26:45.264Z,61.92
2022-10-02T13:29:54.504Z,62.55
2022-10-02T13:33:19.520Z,61.70
2022-10-02T13:36:37.638Z,62.90
2022-10-02T13:40:13.526Z,63.90
2022-10-02T13:43:27.742Z,63.07
2022-10-02T13:46:45.186Z,63.10
2022-10-02T13:50:01.879Z,63.22
2022-10-02T13:53:24.522Z,63.50
2022-10-02T13:56:38.928Z,64.45
2022-10-02T13:59:46.985Z,65.01
2022-10-02T14:02:49.080Z,63.13
2022-10-02T14:06:20.331Z,64.87
2022-10-02T14:09:25.328Z,63.94
2022-10-02T14:12:33.291Z,65.05
2022-10-02T14:15:45.532Z,64.72
2022-10-02T14:19:03.597Z,65.64
2022-10-02T14:22:48.540Z,65.70
2022-10-02T14:26:27.683Z,68.99
2022-10-02T14:30:01.900Z,67.85
2022-10-02T14:33:49.892Z,68.26
2022-10-02T14:37:33.580Z,73.32
2022-10-02T14:40:55.246Z,72.32
2022-10-02T14:44:14.967Z,72.86
2022-10-02T14:47:49.129Z,72.99
2022-10-02T14:51:02.025Z,79.45
2022-10-02T14:54:13.614Z,75.59
2022-10-02T14:57:27.526Z,72.55
2022-10-02T15:00:56.101Z,71.61
2022-10-02T15:04:13.805Z,71.22
2022-10-02T15:07:21.386Z,71.57
2022-10-02T15:10:28.605Z,72.04
2022-10-02T15:13:45.782Z,71.09
2022-10-02T15:17:20.689Z,70.24
2022-10-02T15:20:46.342Z,70.92
2022-10-02T15:23:50.714Z,71.12
2022-10-02T15:27:12.107Z,69.59
2022-10-02T15:30:18.061Z,70.10
2022-10-02T15:33:53.461Z,70.35
2022-10-02T15:37:43.538Z,69.94
2022-10-02T15:40:55.501Z,70.86
2022-10-02T15:44:42.735Z,70.20
2022-10-02T15:48:28.194Z,70.40
2022-10-02T15:51:40.614Z,70.67
2022-10-02T15:55:19.646Z,70.13
2022-10-02T15:58:34.285Z,71.30
2022-10-02T16:01:52.238Z,69.91
2022-10-02T16:05:18.045Z,70.07
2022-10-02T16:08:20.077Z,69.69
2022-10-02T16:11:41.256Z,70.48
2022-10-02T16:15:26.607Z,70.64
2022-10-02T16:18:29.861Z,70.61
2022-10-02T16:21:58.444Z,71.07
2022-10-02T16:25:12.633Z,70.81
2022-10-02T16:28:39.626Z,71.49
2022-10-02T16:32:04.162Z,71.16
2022-10-02T16:35:20.529Z,70.71
2022-10-02T16:38:54.534Z,72.09
2022-10-02T16:42:02.318Z,71.66
2022-10-02T16:45:15.909Z,71.20
2022-10-02T16:48:26.343Z,72.46
2022-10-02T16:51:48.298Z,72.01
2022-10-02T16:55:05.532Z,71.09
2022-10-02T16:58:31.627Z,72.50
2022-10-02T17:01:49.547Z,72.00
2022-10-02T17:05:28.545Z,72.08
2022-10-02T17:08:33.683Z,72.32
2022-10-02T17:12:05.679Z,73.03
2022-10-02T17:15:34.352Z,72.43
2022-10-02T17:18:39.498Z,73.37
2022-10-02T17:21:47.607Z,73.14
2022-10-02T17:24:52.716Z,73.43
2022-10-02T17:28:01.900Z,73.19
2022-10-02T17:31:06.185Z,72.92
2022-10-02T17:34:17.990Z,72.79
2022-10-02T17:37:45.932Z,72.34
2022-10-02T17:41:23.506Z,73.00
2022-10-02T17:44:48.538Z,72.62
2022-10-02T17:48:39.875Z,71.91
2022-10-02T17:52:46.685Z,72.19
2022-10-02T17:56:22.687Z,72.69
2022-10-02T17:59:36.850Z,72.27
2022-10-02T18:02:52.505Z,72.81
2022-10-02T18:06:07.390Z,73.44
2022-10-02T18:09:18.604Z,74.76
2022-10-02T18:12:59.226Z,74.70
2022-10-02T18:16:11.410Z,74.70
2022-10-02T18:19:31.082Z,74.57
2022-10-02T18:22:58.655Z,73.88
2022-10-02T18:26:09.359Z,74.46
2022-10-02T18:29:40.726Z,74.10
2022-10-02T18:32:49.064Z,73.87
2022-10-02T18:35:55.169Z,73.27
2022-10-02T18:39:11.657Z,73.31
2022-10-02T18:42:25.138Z,73.48
2022-10-02T18:45:51.871Z,73.59
2022-10-02T18:49:48.143Z,72.75
2022-10-02T18:52:56.418Z,73.45
2022-10-02T18:56:03.378Z,72.96
2022-10-02T18:59:12.967Z,72.76
2022-10-02T19:02:27.451Z,72.42
2022-10-02T19:05:35.716Z,72.66
2022-10-02T19:09:08.948Z,73.02
2022-10-02T19:12:25.921Z,73.82
2022-10-02T19:15:33.540Z,73.36
2022-10-02T19:18:36.825Z,73.54
2022-10-02T19:21:39.356Z,73.92
2022-10-02T19:24:43.758Z,73.89
2022-10-02T19:27:54.104Z,73.62
2022-10-02T19:31:04.324Z,73.03
2022-10-02T19:34:17.683Z,73.07
2022-10-02T19:37:20.222Z,72.75
2022-10-02T19:40:32.198Z,72.28
2022-10-02T19:43:43.096Z,72.46
2022-10-02T19:46:50.231Z,72.55
2022-10-02T19:49:52.532Z,72.29
2022-10-02T19:53:07.268Z,72.56
2022-10-02T19:56:13.231Z,72.85
2022-10-02T19:59:19.809Z,73.44
2022-10-02T20:02:29.988Z,73.82
2022-10-02T20:05:36.063Z,73.90
2022-10-02T20:08:43.589Z,74.00
2022-10-02T20:11:50.484Z,73.81
2022-10-02T20:15:05.148Z,74.20
2022-10-02T20:18:09.371Z,74.45
2022-10-02T20:21:26.245Z,74.73
2022-10-02T20:24:33.076Z,74.36
2022-10-02T20:27:52.087Z,74.40
2022-10-02T20:31:11.397Z,74.15
2022-10-02T20:34:25.130Z,74.11
2022-10-02T20:37:31.334Z,74.41
2022-10-02T20:40:37.363Z,74.14
2022-10-02T20:43:46.841Z,74.42
2022-10-02T20:47:22.340Z,74.17
2022-10-02T20:51:09.043Z,74.60
2022-10-02T20:54:31.415Z,75.02
2022-10-02T20:58:01.953Z,75.54
2022-10-02T21:01:20.857Z,76.32
2022-10-02T21:04:41.608Z,75.78
2022-10-02T21:07:59.775Z,75.44
2022-10-02T21:11:20.146Z,75.47
2022-10-02T21:14:53.574Z,75.26
2022-10-02T21:18:01.345Z,76.25
2022-10-02T21:21:53.625Z,76.62
2022-10-02T21:25:03.037Z,77.42
2022-10-02T21:28:37.506Z,77.02
2022-10-02T21:32:05.969Z,77.50
2022-10-02T21:35:35.108Z,77.84
2022-10-02T21:39:01.778Z,77.95
2022-10-02T21:42:13.261Z,77.72
2022-10-02T21:45:49.392Z,78.41
2022-10-02T21:49:15.994Z,78.03
2022-10-02T21:52:30.074Z,78.08
2022-10-02T21:56:00.065Z,77.78
2022-10-02T21:59:46.796Z,77.85
2022-10-02T22:03:06.984Z,77.68
2022-10-02T22:06:37.599Z,77.61
2022-10-02T22:09:44.888Z,77.31
2022-10-02T22:13:24.995Z,77.14
2022-10-02T22:16:27.031Z,76.63
2022-10-02T22:19:51.952Z,77.35
2022-10-02T22:23:14.805Z,77.63
2022-10-02T22:26:24.732Z,77.89
2022-10-02T22:29:29.565Z,78.78
2022-10-02T22:32:56.249Z,77.93
2022-10-02T22:36:10.249Z,78.27
2022-10-02T22:39:14.931Z,77.88
2022-10-02T22:42:27.957Z,77.94
2022-10-02T22:46:02.653Z,78.08
2022-10-02T22:49:21.394Z,77.93
2022-10-02T22:52:26.547Z,77.99
2022-10-02T22:55:36.524Z,77.86
2022-10-02T22:59:07.004Z,77.22
2022-10-02T23:02:22.739Z,77.29
2022-10-02T23:05:43.111Z,76.86
2022-10-02T23:08:57.554Z,77.21
2022-10-02T23:12:14.593Z,76.76
2022-10-02T23:15:22.304Z,76.88
2022-10-02T23:18:50.712Z,76.90
2022-10-02T23:22:17.875Z,77.95
2022-10-02T23:25:46.325Z,78.43
2022-10-02T23:28:56.581Z,78.92
2022-10-02T23:32:04.297Z,77.98
2022-10-02T23:35:37.236Z,78.46
2022-10-02T23:38:52.069Z,78.53
2022-10-02T23:41:58.634Z,77.75
2022-10-02T23:45:10.369Z,78.24
2022-10-02T23:48:14.322Z,77.85
2022-10-02T23:51:19.072Z,78.29
2022-10-02T23:54:55.609Z,77.50
2022-10-02T23:58:00.257Z,76.65
